createdAt,value
2018-09-06T00:01:59.956Z,42.40
2018-09-06T00:04:32.868Z,42.80
2018-09-06T00:07:06.649Z,43.10
2018-09-06T00:09:36.188Z,43.40
2018-09-06T00:12:05.257Z,43.50
2018-09-06T00:14:34.741Z,43.50
2018-09-06T00:17:07.537Z,43.40
2018-09-06T00:19:38.157Z,43.50
2018-09-06T00:22:11.146Z,43.30
2018-09-06T00:24:41.180Z,43.30
2018-09-06T00:27:11.178Z,43.40
2018-09-06T00:29:41.657Z,43.40
2018-09-06T00:32:13.951Z,44.30
2018-09-06T00:34:46.373Z,43.50
2018-09-06T00:37:17.232Z,43.60
2018-09-06T00:39:46.697Z,43.70
2018-09-06T00:42:18.904Z,43.90
2018-09-06T00:44:54.011Z,44.00
2018-09-06T00:47:25.111Z,44.00
2018-09-06T00:49:56.681Z,44.00
2018-09-06T00:52:26.813Z,44.00
2018-09-06T00:54:55.960Z,44.70
2018-09-06T00:57:25.652Z,44.10
2018-09-06T00:59:58.984Z,44.40
2018-09-06T01:02:29.991Z,44.60
2018-09-06T01:05:09.253Z,44.60
2018-09-06T01:07:38.145Z,44.80
2018-09-06T01:10:09.248Z,45.00
2018-09-06T01:12:45.199Z,45.00
2018-09-06T01:15:18.576Z,44.90
2018-09-06T01:17:48.633Z,44.90
2018-09-06T01:20:22.541Z,44.80
2018-09-06T01:22:51.625Z,45.00
2018-09-06T01:25:25.433Z,45.00
2018-09-06T01:27:54.673Z,45.00
2018-09-06T01:30:24.232Z,45.00
2018-09-06T01:32:53.872Z,45.10
2018-09-06T01:35:28.419Z,45.30
2018-09-06T01:38:03.874Z,45.10
2018-09-06T01:40:32.901Z,45.00
2018-09-06T01:43:06.998Z,44.90
2018-09-06T01:45:35.909Z,45.00
2018-09-06T01:48:08.196Z,45.30
2018-09-06T01:50:40.465Z,45.50
2018-09-06T01:53:10.987Z,45.60
2018-09-06T01:55:45.248Z,45.60
2018-09-06T01:58:15.352Z,45.50
2018-09-06T02:00:44.973Z,45.60
2018-09-06T02:03:14.230Z,45.70
2018-09-06T02:05:48.615Z,45.70
2018-09-06T02:08:18.150Z,45.90
2018-09-06T02:10:47.737Z,46.00
2018-09-06T02:13:18.323Z,46.10
2018-09-06T02:15:51.063Z,46.30
2018-09-06T02:18:20.908Z,46.40
2018-09-06T02:20:50.877Z,46.50
2018-09-06T02:23:22.983Z,46.70
2018-09-06T02:25:56.369Z,46.60
2018-09-06T02:28:30.651Z,46.70
2018-09-06T02:31:03.593Z,46.60
2018-09-06T02:33:37.233Z,46.70
2018-09-06T02:36:06.488Z,46.70
2018-09-06T02:38:35.565Z,46.90
2018-09-06T02:41:05.800Z,47.00
2018-09-06T02:43:37.017Z,47.00
2018-09-06T02:46:06.246Z,46.80
2018-09-06T02:48:40.685Z,46.80
2018-09-06T02:51:18.979Z,46.80
2018-09-06T02:53:52.589Z,46.90
2018-09-06T02:56:25.243Z,47.20
2018-09-06T02:59:00.898Z,47.20
2018-09-06T03:01:32.218Z,47.50
2018-09-06T03:04:03.271Z,47.80
2018-09-06T03:06:33.874Z,48.30
2018-09-06T03:09:08.298Z,48.40
2018-09-06T03:11:46.582Z,48.40
2018-09-06T03:14:15.403Z,48.40
2018-09-06T03:16:45.141Z,48.40
2018-09-06T03:19:14.049Z,48.00
2018-09-06T03:21:47.271Z,47.80
2018-09-06T03:24:20.644Z,47.70
2018-09-06T03:26:53.755Z,47.90
2018-09-06T03:29:25.827Z,47.90
2018-09-06T03:31:58.913Z,48.00
2018-09-06T03:34:30.460Z,47.80
2018-09-06T03:37:01.562Z,47.70
2018-09-06T03:39:30.364Z,47.80
2018-09-06T03:42:00.512Z,47.80
2018-09-06T03:44:45.228Z,48.00
2018-09-06T03:47:14.875Z,47.40
2018-09-06T03:49:50.880Z,47.20
2018-09-06T03:52:19.629Z,47.90
2018-09-06T03:54:49.653Z,47.20
2018-09-06T03:57:19.481Z,47.10
2018-09-06T03:59:53.152Z,47.00
2018-09-06T04:02:24.270Z,47.10
2018-09-06T04:04:55.194Z,47.20
2018-09-06T04:07:28.592Z,47.30
2018-09-06T04:09:57.517Z,47.40
2018-09-06T04:12:27.374Z,47.50
2018-09-06T04:15:03.018Z,47.70
2018-09-06T04:17:34.534Z,47.80
2018-09-06T04:20:07.464Z,47.80
2018-09-06T04:22:40.484Z,47.60
2018-09-06T04:25:09.380Z,47.70
2018-09-06T04:27:44.666Z,47.80
2018-09-06T04:30:14.228Z,47.70
2018-09-06T04:32:51.500Z,47.80
2018-09-06T04:35:20.464Z,48.00
2018-09-06T04:37:54.777Z,47.90
2018-09-06T04:40:24.518Z,48.10
2018-09-06T04:42:54.768Z,47.90
2018-09-06T04:45:24.065Z,47.60
2018-09-06T04:47:54.601Z,47.50
2018-09-06T04:50:23.424Z,47.00
2018-09-06T04:52:53.564Z,47.60
2018-09-06T04:55:24.807Z,48.00
2018-09-06T04:57:57.820Z,48.40
2018-09-06T05:00:28.294Z,48.70
2018-09-06T05:03:00.899Z,48.70
2018-09-06T05:05:36.808Z,49.00
2018-09-06T05:08:08.287Z,48.80
2018-09-06T05:10:47.232Z,48.90
2018-09-06T05:13:25.682Z,48.80
2018-09-06T05:16:00.755Z,48.90
2018-09-06T05:18:37.016Z,48.90
2018-09-06T05:21:06.840Z,49.50
2018-09-06T05:23:40.672Z,50.10
2018-09-06T05:26:10.323Z,50.30
2018-09-06T05:28:40.891Z,50.60
2018-09-06T05:31:13.936Z,50.80
2018-09-06T05:33:43.497Z,51.00
2018-09-06T05:36:17.617Z,51.20
2018-09-06T05:38:47.433Z,51.60
2018-09-06T05:41:17.277Z,52.10
2018-09-06T05:43:47.075Z,52.60
2018-09-06T05:46:16.800Z,52.70
2018-09-06T05:48:45.656Z,53.00
2018-09-06T05:51:16.797Z,52.90
2018-09-06T05:53:46.036Z,53.00
2018-09-06T05:56:14.766Z,52.90
2018-09-06T05:58:46.928Z,53.70
2018-09-06T06:01:19.486Z,54.00
2018-09-06T06:03:48.164Z,54.20
2018-09-06T06:06:17.234Z,54.40
2018-09-06T06:08:47.476Z,54.00
2018-09-06T06:11:16.992Z,54.10
2018-09-06T06:13:50.229Z,53.80
2018-09-06T06:16:19.142Z,54.30
2018-09-06T06:18:48.921Z,54.80
2018-09-06T06:21:17.783Z,56.40
2018-09-06T06:23:50.166Z,56.40
2018-09-06T06:26:18.967Z,56.70
2018-09-06T06:28:48.711Z,57.00
2018-09-06T06:31:18.592Z,57.10
2018-09-06T06:33:48.303Z,57.10
2018-09-06T06:36:18.016Z,57.20
2018-09-06T06:38:46.774Z,57.30
2018-09-06T06:41:15.937Z,57.50
2018-09-06T06:43:44.653Z,57.40
2018-09-06T06:46:15.397Z,56.90
2018-09-06T06:48:44.420Z,57.10
2018-09-06T06:51:16.628Z,57.00
2018-09-06T06:53:48.867Z,56.80
2018-09-06T06:56:19.113Z,57.10
2018-09-06T06:58:48.012Z,56.80
2018-09-06T07:01:16.851Z,56.80
2018-09-06T07:03:47.359Z,56.90
2018-09-06T07:06:19.828Z,57.30
2018-09-06T07:08:48.608Z,57.00
2018-09-06T07:11:19.535Z,57.00
2018-09-06T07:13:48.313Z,57.00
2018-09-06T07:16:18.078Z,57.10
2018-09-06T07:18:46.924Z,57.10
2018-09-06T07:21:15.760Z,57.10
2018-09-06T07:23:44.460Z,57.40
2018-09-06T07:26:13.293Z,57.20
2018-09-06T07:28:45.329Z,57.30
2018-09-06T07:31:14.065Z,57.20
2018-09-06T07:33:42.790Z,57.40
2018-09-06T07:36:12.599Z,57.50
2018-09-06T07:38:41.326Z,57.80
2018-09-06T07:41:10.022Z,57.70
2018-09-06T07:43:39.767Z,57.80
2018-09-06T07:46:08.746Z,57.80
2018-09-06T07:48:41.101Z,57.70
2018-09-06T07:51:09.935Z,57.50
2018-09-06T07:53:39.354Z,57.60
2018-09-06T07:56:10.084Z,57.80
2018-09-06T07:58:39.866Z,57.90
2018-09-06T08:01:08.555Z,57.70
2018-09-06T08:03:37.471Z,57.80
2018-09-06T08:06:12.067Z,57.80
2018-09-06T08:08:40.919Z,57.60
2018-09-06T08:11:09.724Z,58.10
2018-09-06T08:13:38.756Z,58.10
2018-09-06T08:16:08.557Z,58.20
2018-09-06T08:18:37.307Z,58.40
2018-09-06T08:21:06.117Z,58.30
2018-09-06T08:23:34.828Z,58.40
2018-09-06T08:26:04.804Z,58.40
2018-09-06T08:28:33.528Z,58.30
2018-09-06T08:31:02.471Z,58.20
2018-09-06T08:33:33.012Z,58.20
2018-09-06T08:36:06.974Z,58.50
2018-09-06T08:38:35.781Z,58.50
2018-09-06T08:41:04.377Z,58.40
2018-09-06T08:43:33.129Z,58.40
2018-09-06T08:46:04.081Z,58.30
2018-09-06T08:48:32.862Z,58.00
2018-09-06T08:51:01.841Z,58.10
2018-09-06T08:53:30.590Z,58.30
2018-09-06T08:56:05.831Z,58.40
2018-09-06T08:58:37.875Z,58.60
2018-09-06T09:01:11.940Z,58.60
2018-09-06T09:03:41.007Z,58.40
2018-09-06T09:06:09.942Z,58.50
2018-09-06T09:08:38.618Z,58.50
2018-09-06T09:11:07.407Z,58.60
2018-09-06T09:13:36.197Z,58.70
2018-09-06T09:16:06.307Z,58.90
2018-09-06T09:18:35.055Z,58.90
2018-09-06T09:21:05.108Z,58.60
2018-09-06T09:23:33.832Z,58.60
2018-09-06T09:26:06.229Z,58.80
2018-09-06T09:28:36.957Z,59.10
2018-09-06T09:31:07.809Z,59.10
2018-09-06T09:33:36.565Z,59.10
2018-09-06T09:36:06.656Z,59.20
2018-09-06T09:38:35.312Z,59.20
2018-09-06T09:41:04.150Z,59.70
2018-09-06T09:43:32.860Z,59.20
2018-09-06T09:48:29.827Z,59.30
2018-09-06T09:50:58.827Z,59.30
2018-09-06T09:53:27.756Z,59.40
2018-09-06T09:55:56.800Z,59.50
2018-09-06T09:58:25.452Z,59.60
2018-09-06T10:00:56.383Z,59.60
2018-09-06T10:03:30.240Z,59.50
2018-09-06T10:06:04.105Z,59.50
2018-09-06T10:08:38.159Z,59.50
2018-09-06T10:11:06.962Z,59.50
2018-09-06T10:13:35.652Z,59.70
2018-09-06T10:16:04.488Z,59.80
2018-09-06T10:18:36.642Z,59.80
2018-09-06T10:21:06.004Z,59.70
2018-09-06T10:23:34.865Z,60.00
2018-09-06T10:26:05.590Z,60.00
2018-09-06T10:28:34.465Z,59.90
2018-09-06T10:31:03.523Z,60.00
2018-09-06T10:33:33.283Z,60.00
2018-09-06T10:36:03.092Z,60.20
2018-09-06T10:38:37.109Z,60.20
2018-09-06T10:41:06.378Z,60.40
2018-09-06T10:43:35.164Z,60.50
2018-09-06T10:46:05.317Z,60.20
2018-09-06T10:48:34.162Z,60.10
2018-09-06T10:51:08.883Z,60.00
2018-09-06T10:53:41.486Z,60.00
2018-09-06T10:56:10.529Z,60.20
2018-09-06T10:58:39.414Z,59.90
2018-09-06T11:01:13.363Z,59.90
2018-09-06T11:03:42.279Z,60.10
2018-09-06T11:06:16.937Z,60.20
2018-09-06T11:08:45.767Z,60.30
2018-09-06T11:11:15.141Z,60.50
2018-09-06T11:13:49.945Z,60.70
2018-09-06T11:16:25.799Z,60.60
2018-09-06T11:18:55.050Z,60.60
2018-09-06T11:21:26.023Z,60.70
2018-09-06T11:23:54.703Z,60.60
2018-09-06T11:26:26.729Z,60.60
2018-09-06T11:28:55.529Z,60.50
2018-09-06T11:31:24.314Z,60.40
2018-09-06T11:33:55.521Z,60.50
2018-09-06T11:36:25.131Z,60.60
2018-09-06T11:38:53.905Z,60.50
2018-09-06T11:41:22.794Z,60.60
2018-09-06T11:43:51.736Z,60.70
2018-09-06T11:46:20.444Z,60.80
2018-09-06T11:48:53.413Z,60.70
2018-09-06T11:54:25.811Z,60.70
2018-09-06T11:56:54.735Z,60.70
2018-09-06T11:59:25.275Z,60.70
2018-09-06T12:01:57.214Z,60.60
2018-09-06T12:04:26.132Z,60.60
2018-09-06T12:07:01.902Z,60.50
2018-09-06T12:09:32.594Z,60.30
2018-09-06T12:12:04.726Z,60.60
2018-09-06T12:14:33.932Z,60.50
2018-09-06T12:17:02.742Z,60.40
2018-09-06T12:19:31.576Z,60.60
2018-09-06T12:22:00.554Z,60.70
2018-09-06T12:24:29.378Z,60.70
2018-09-06T12:27:03.400Z,60.80
2018-09-06T12:29:37.045Z,61.60
2018-09-06T12:32:06.329Z,61.00
2018-09-06T12:34:36.612Z,60.90
2018-09-06T12:37:12.445Z,61.00
2018-09-06T12:39:43.853Z,61.10
2018-09-06T12:42:13.006Z,61.20
2018-09-06T12:44:45.390Z,61.30
2018-09-06T12:47:16.278Z,61.20
2018-09-06T12:49:45.216Z,61.20
2018-09-06T12:52:15.354Z,61.20
2018-09-06T12:54:46.309Z,61.00
2018-09-06T12:57:15.282Z,61.00
2018-09-06T12:59:45.020Z,61.20
2018-09-06T13:02:14.829Z,61.00
2018-09-06T13:04:44.301Z,61.10
2018-09-06T13:07:13.107Z,61.40
2018-09-06T13:09:41.905Z,61.40
2018-09-06T13:12:11.360Z,61.40
2018-09-06T13:14:42.789Z,61.50
2018-09-06T13:17:11.537Z,61.50
2018-09-06T13:19:43.811Z,61.90
2018-09-06T13:22:12.743Z,61.80
2018-09-06T13:24:41.680Z,61.70
2018-09-06T13:27:12.957Z,61.20
2018-09-06T13:29:45.331Z,61.30
2018-09-06T13:32:14.246Z,61.00
2018-09-06T13:34:43.760Z,60.90
2018-09-06T13:37:15.817Z,60.80
2018-09-06T13:39:44.944Z,60.60
2018-09-06T13:42:20.752Z,60.30
2018-09-06T13:44:49.462Z,60.50
2018-09-06T13:47:18.376Z,60.60
2018-09-06T13:49:48.189Z,60.80
2018-09-06T13:52:20.881Z,60.80
2018-09-06T13:54:49.848Z,60.70
2018-09-06T13:57:18.607Z,60.70
2018-09-06T13:59:48.351Z,60.30
2018-09-06T14:02:17.264Z,60.40
2018-09-06T14:04:46.093Z,60.10
2018-09-06T14:07:14.963Z,59.80
2018-09-06T14:09:45.897Z,60.00
2018-09-06T14:12:14.663Z,60.40
2018-09-06T14:14:43.486Z,60.30
2018-09-06T14:17:13.169Z,59.90
2018-09-06T14:19:42.034Z,60.00
2018-09-06T14:22:16.297Z,59.70
2018-09-06T14:24:50.407Z,59.70
2018-09-06T14:27:19.324Z,59.00
2018-09-06T14:29:48.079Z,58.80
2018-09-06T14:32:16.863Z,58.80
2018-09-06T14:34:45.644Z,58.90
2018-09-06T14:37:14.543Z,58.80
2018-09-06T14:39:43.436Z,59.00
2018-09-06T14:42:12.153Z,59.00
2018-09-06T14:44:44.674Z,59.20
2018-09-06T14:47:16.044Z,59.60
2018-09-06T14:49:44.867Z,59.40
2018-09-06T14:52:18.805Z,59.40
2018-09-06T14:54:48.511Z,59.30
2018-09-06T14:57:17.237Z,59.20
2018-09-06T14:59:49.274Z,59.10
2018-09-06T15:02:18.207Z,59.10
2018-09-06T15:04:47.001Z,58.80
2018-09-06T15:07:19.007Z,58.70
2018-09-06T15:09:47.996Z,58.90
2018-09-06T15:12:22.078Z,58.70
2018-09-06T15:14:50.851Z,58.70
2018-09-06T15:17:19.630Z,58.70
2018-09-06T15:19:48.377Z,58.80
2018-09-06T15:22:20.890Z,58.80
2018-09-06T15:24:51.762Z,58.80
2018-09-06T15:27:22.745Z,58.80
2018-09-06T15:29:51.540Z,58.80
2018-09-06T15:32:20.567Z,58.80
2018-09-06T15:34:52.639Z,58.90
2018-09-06T15:37:22.442Z,58.90
2018-09-06T15:39:51.201Z,58.90
2018-09-06T15:42:24.706Z,58.80
2018-09-06T15:44:54.751Z,58.80
2018-09-06T15:47:24.470Z,58.80
2018-09-06T15:50:03.252Z,58.80
2018-09-06T15:52:34.114Z,58.80
2018-09-06T15:55:03.871Z,58.80
2018-09-06T15:57:32.707Z,58.80
2018-09-06T16:00:03.932Z,58.20
2018-09-06T16:02:36.333Z,58.80
2018-09-06T16:05:05.110Z,58.80
2018-09-06T16:07:35.260Z,58.90
2018-09-06T16:10:05.290Z,58.80
2018-09-06T16:12:35.263Z,58.40
2018-09-06T16:15:05.097Z,58.10
2018-09-06T16:17:35.352Z,58.10
2018-09-06T16:20:08.145Z,58.40
2018-09-06T16:22:41.165Z,58.30
2018-09-06T16:25:14.123Z,57.70
2018-09-06T16:27:44.103Z,57.70
2018-09-06T16:30:14.064Z,58.00
2018-09-06T16:32:43.009Z,58.10
2018-09-06T16:35:15.835Z,57.60
2018-09-06T16:37:52.019Z,57.20
2018-09-06T16:40:25.039Z,57.20
2018-09-06T16:42:59.143Z,57.10
2018-09-06T16:45:33.296Z,57.30
2018-09-06T16:48:02.162Z,57.50
2018-09-06T16:50:32.554Z,57.40
2018-09-06T16:53:01.852Z,57.30
2018-09-06T16:55:31.427Z,57.30
2018-09-06T16:58:01.356Z,57.10
2018-09-06T17:00:32.448Z,57.00
2018-09-06T17:03:01.340Z,56.70
2018-09-06T17:05:30.846Z,56.70
2018-09-06T17:07:59.733Z,56.50
2018-09-06T17:10:29.657Z,56.40
2018-09-06T17:13:12.896Z,56.40
2018-09-06T17:15:42.775Z,56.40
2018-09-06T17:18:12.603Z,56.40
2018-09-06T17:20:41.646Z,56.40
2018-09-06T17:23:13.421Z,56.50
2018-09-06T17:25:46.978Z,56.50
2018-09-06T17:28:15.867Z,56.80
2018-09-06T17:30:45.279Z,56.20
2018-09-06T17:33:14.552Z,57.00
2018-09-06T17:35:49.154Z,57.80
2018-09-06T17:38:21.084Z,57.60
2018-09-06T17:40:54.709Z,57.50
2018-09-06T17:43:29.849Z,57.30
2018-09-06T17:45:59.175Z,57.30
2018-09-06T17:48:41.015Z,57.40
2018-09-06T17:51:13.526Z,57.40
2018-09-06T17:53:42.441Z,57.60
2018-09-06T17:56:11.280Z,57.70
2018-09-06T17:58:41.294Z,57.80
2018-09-06T18:01:19.685Z,57.70
2018-09-06T18:03:49.663Z,57.80
2018-09-06T18:06:18.437Z,57.30
2018-09-06T18:08:47.561Z,57.20
2018-09-06T18:11:16.473Z,57.40
2018-09-06T18:13:45.236Z,57.80
2018-09-06T18:16:14.925Z,57.70
2018-09-06T18:18:47.349Z,57.70
2018-09-06T18:21:19.516Z,57.80
2018-09-06T18:23:54.037Z,57.80
2018-09-06T18:26:25.922Z,57.90
2018-09-06T18:28:55.280Z,57.90
2018-09-06T18:31:24.559Z,57.90
2018-09-06T18:33:55.444Z,57.90
2018-09-06T18:36:29.494Z,57.90
2018-09-06T18:39:05.409Z,57.80
2018-09-06T18:41:34.755Z,57.70
2018-09-06T18:44:11.430Z,57.70
2018-09-06T18:46:56.010Z,57.70
2018-09-06T18:49:29.583Z,57.70
2018-09-06T18:51:58.536Z,57.70
2018-09-06T18:54:29.300Z,57.70
2018-09-06T18:56:58.965Z,57.70
2018-09-06T18:59:38.893Z,57.70
2018-09-06T19:02:20.336Z,57.70
2018-09-06T19:04:53.310Z,57.80
2018-09-06T19:07:23.799Z,57.80
2018-09-06T19:09:55.575Z,57.70
2018-09-06T19:12:26.570Z,57.60
2018-09-06T19:14:58.594Z,57.50
2018-09-06T19:17:31.743Z,57.90
2018-09-06T19:20:07.358Z,58.00
2018-09-06T19:22:50.056Z,58.30
2018-09-06T19:25:20.035Z,58.30
2018-09-06T19:28:01.922Z,58.30
2018-09-06T19:30:32.583Z,58.20
2018-09-06T19:33:08.385Z,58.20
2018-09-06T19:35:43.377Z,57.70
2018-09-06T19:38:14.181Z,57.60
2018-09-06T19:40:46.421Z,57.60
2018-09-06T19:43:15.947Z,57.50
2018-09-06T19:45:50.151Z,57.60
2018-09-06T19:48:19.621Z,58.00
2018-09-06T19:50:55.733Z,58.10
2018-09-06T19:53:26.136Z,57.80
2018-09-06T19:55:57.859Z,57.70
2018-09-06T19:58:30.854Z,57.90
2018-09-06T20:01:04.253Z,57.40
2018-09-06T20:03:40.037Z,57.30
2018-09-06T20:06:16.471Z,57.40
2018-09-06T20:08:47.091Z,57.30
2018-09-06T20:11:17.072Z,57.30
2018-09-06T20:13:47.001Z,57.20
2018-09-06T20:16:20.669Z,57.20
2018-09-06T20:18:54.781Z,57.20
2018-09-06T20:21:24.250Z,57.10
2018-09-06T20:23:54.383Z,57.10
2018-09-06T20:26:25.134Z,57.10
2018-09-06T20:29:00.205Z,57.20
2018-09-06T20:31:33.008Z,57.20
2018-09-06T20:34:02.832Z,57.10
2018-09-06T20:36:43.427Z,57.00
2018-09-06T20:39:13.307Z,57.00
2018-09-06T20:41:42.402Z,57.00
2018-09-06T20:44:14.092Z,57.00
2018-09-06T20:46:43.339Z,56.90
2018-09-06T20:49:14.662Z,56.80
2018-09-06T20:51:46.718Z,56.80
2018-09-06T20:54:19.173Z,57.10
2018-09-06T20:56:51.633Z,56.70
2018-09-06T20:59:24.225Z,56.70
2018-09-06T21:01:54.201Z,56.90
2018-09-06T21:04:41.433Z,57.10
2018-09-06T21:07:17.933Z,57.20
2018-09-06T21:09:51.907Z,57.10
2018-09-06T21:12:34.497Z,57.20
2018-09-06T21:15:05.886Z,57.10
2018-09-06T21:17:39.446Z,57.00
2018-09-06T21:20:12.427Z,57.00
2018-09-06T21:22:48.262Z,56.60
2018-09-06T21:25:18.196Z,56.70
2018-09-06T21:27:48.120Z,56.60
2018-09-06T21:30:18.811Z,56.50
2018-09-06T21:32:47.859Z,56.90
2018-09-06T21:35:18.411Z,57.20
2018-09-06T21:37:48.468Z,56.80
2018-09-06T21:40:18.019Z,57.00
2018-09-06T21:42:53.343Z,56.80
2018-09-06T21:45:23.185Z,56.60
2018-09-06T21:47:58.155Z,56.50
2018-09-06T21:50:32.284Z,56.60
2018-09-06T21:53:03.273Z,56.60
2018-09-06T21:55:38.564Z,56.50
2018-09-06T21:58:08.244Z,56.50
2018-09-06T22:00:41.154Z,57.40
2018-09-06T22:03:21.440Z,56.60
2018-09-06T22:06:02.313Z,56.50
2018-09-06T22:08:32.633Z,56.50
2018-09-06T22:11:06.804Z,56.60
2018-09-06T22:13:46.002Z,56.70
2018-09-06T22:16:18.978Z,56.50
2018-09-06T22:18:52.667Z,56.40
2018-09-06T22:21:21.978Z,56.50
2018-09-06T22:23:55.925Z,56.60
2018-09-06T22:26:25.075Z,56.60
2018-09-06T22:28:58.454Z,56.50
2018-09-06T22:31:30.056Z,56.60
2018-09-06T22:34:03.814Z,56.60
2018-09-06T22:36:34.298Z,56.60
2018-09-06T22:39:05.308Z,56.50
2018-09-06T22:41:38.764Z,56.50
2018-09-06T22:44:08.628Z,56.30
2018-09-06T22:46:44.497Z,56.60
2018-09-06T22:49:19.028Z,56.50
2018-09-06T22:51:52.110Z,56.40
2018-09-06T22:54:23.080Z,56.20
2018-09-06T22:56:55.911Z,56.30
2018-09-06T22:59:32.606Z,56.50
2018-09-06T23:02:06.869Z,56.20
2018-09-06T23:04:35.830Z,56.20
2018-09-06T23:07:09.292Z,56.60
2018-09-06T23:09:40.037Z,56.30
2018-09-06T23:12:14.685Z,56.30
2018-09-06T23:14:48.311Z,56.20
2018-09-06T23:17:25.672Z,56.30
2018-09-06T23:19:56.862Z,56.50
2018-09-06T23:22:34.543Z,57.10
2018-09-06T23:25:03.801Z,56.40
2018-09-06T23:27:39.185Z,56.40
2018-09-06T23:30:09.528Z,56.30
2018-09-06T23:32:39.488Z,56.30
2018-09-06T23:35:15.184Z,56.30
2018-09-06T23:37:47.441Z,56.30
2018-09-06T23:40:19.632Z,56.80
2018-09-06T23:42:49.362Z,56.80
2018-09-06T23:45:29.255Z,56.90
2018-09-06T23:47:59.972Z,56.90
2018-09-06T23:50:35.421Z,57.00
2018-09-06T23:53:12.311Z,56.80
2018-09-06T23:55:42.858Z,57.10
2018-09-06T23:58:15.276Z,57.20
